createdAt,value
2019-03-22T00:00:54.762Z,9.70
2019-03-22T00:03:58.253Z,9.70
2019-03-22T00:07:01.717Z,9.70
2019-03-22T00:10:06.406Z,9.80
2019-03-22T00:13:09.897Z,9.80
2019-03-22T00:16:13.366Z,9.70
2019-03-22T00:19:16.845Z,9.70
2019-03-22T00:22:20.284Z,9.60
2019-03-22T00:25:23.746Z,9.60
2019-03-22T00:28:27.186Z,9.50
2019-03-22T00:31:30.662Z,9.40
2019-03-22T00:34:34.102Z,9.40
2019-03-22T00:37:37.577Z,9.30
2019-03-22T00:40:41.018Z,9.30
2019-03-22T00:43:44.482Z,9.30
2019-03-22T00:46:47.954Z,9.30
2019-03-22T00:49:51.395Z,9.20
2019-03-22T00:52:54.852Z,9.20
2019-03-22T00:55:58.293Z,9.30
2019-03-22T00:59:01.777Z,9.30
2019-03-22T01:02:05.217Z,9.20
2019-03-22T01:05:09.337Z,9.10
2019-03-22T01:08:12.769Z,9.00
2019-03-22T01:11:16.237Z,9.00
2019-03-22T01:14:19.676Z,8.90
2019-03-22T01:17:23.150Z,8.90
2019-03-22T01:20:26.599Z,9.00
2019-03-22T01:23:30.082Z,9.00
2019-03-22T01:26:33.517Z,8.90
2019-03-22T01:29:37.002Z,8.90
2019-03-22T01:32:40.437Z,8.90
2019-03-22T01:35:43.906Z,8.90
2019-03-22T01:38:48.726Z,8.90
2019-03-22T01:41:52.201Z,8.80
2019-03-22T01:44:55.654Z,8.70
2019-03-22T01:47:59.126Z,8.70
2019-03-22T01:51:02.598Z,8.60
2019-03-22T01:54:06.035Z,8.60
2019-03-22T01:57:09.514Z,8.50
2019-03-22T02:00:15.574Z,8.40
2019-03-22T02:03:19.040Z,8.40
2019-03-22T02:06:22.477Z,8.50
2019-03-22T02:09:25.949Z,8.40
2019-03-22T02:12:29.427Z,8.30
2019-03-22T02:15:32.882Z,8.30
2019-03-22T02:18:38.025Z,8.30
2019-03-22T02:21:41.567Z,8.30
2019-03-22T02:24:45.034Z,8.40
2019-03-22T02:27:48.510Z,8.40
2019-03-22T02:30:51.960Z,8.40
2019-03-22T02:33:55.786Z,8.50
2019-03-22T02:36:59.261Z,8.40
2019-03-22T02:40:02.998Z,8.30
2019-03-22T02:43:06.528Z,8.20
2019-03-22T02:46:10.063Z,8.10
2019-03-22T02:49:13.504Z,8.20
2019-03-22T02:52:16.970Z,8.30
2019-03-22T02:55:20.414Z,8.30
2019-03-22T02:58:23.901Z,8.40
2019-03-22T03:01:27.464Z,8.40
2019-03-22T03:04:30.982Z,8.30
2019-03-22T03:07:34.458Z,8.20
2019-03-22T03:10:37.923Z,8.30
2019-03-22T03:13:41.382Z,8.20
2019-03-22T03:16:44.854Z,8.10
2019-03-22T03:19:48.399Z,8.10
2019-03-22T03:22:51.935Z,8.00
2019-03-22T03:25:55.393Z,8.00
2019-03-22T03:28:58.865Z,7.90
2019-03-22T03:32:02.354Z,7.90
2019-03-22T03:35:06.800Z,8.00
2019-03-22T03:38:10.259Z,8.00
2019-03-22T03:41:13.703Z,7.90
2019-03-22T03:44:17.180Z,7.90
2019-03-22T03:47:20.650Z,7.90
2019-03-22T03:50:24.102Z,7.80
2019-03-22T03:53:27.575Z,7.70
2019-03-22T03:56:31.041Z,7.70
2019-03-22T03:59:34.511Z,7.70
2019-03-22T04:02:37.994Z,7.70
2019-03-22T04:05:41.481Z,7.70
2019-03-22T04:08:45.038Z,7.80
2019-03-22T04:11:48.503Z,7.80
2019-03-22T04:14:51.950Z,7.90
2019-03-22T04:17:55.406Z,7.90
2019-03-22T04:20:58.894Z,7.90
2019-03-22T04:24:02.339Z,7.90
2019-03-22T04:27:05.809Z,7.80
2019-03-22T04:30:09.281Z,7.80
2019-03-22T04:33:12.811Z,7.70
2019-03-22T04:36:16.291Z,7.60
2019-03-22T04:39:19.737Z,7.60
2019-03-22T04:42:23.198Z,7.50
2019-03-22T04:45:28.816Z,7.50
2019-03-22T04:48:35.162Z,7.50
2019-03-22T04:51:39.166Z,7.40
2019-03-22T04:54:45.022Z,7.40
2019-03-22T04:57:49.534Z,7.30
2019-03-22T05:00:54.815Z,7.30
2019-03-22T05:03:59.192Z,7.30
2019-03-22T05:07:02.894Z,7.40
2019-03-22T05:10:08.949Z,7.30
2019-03-22T05:13:14.553Z,7.30
2019-03-22T05:16:20.143Z,7.30
2019-03-22T05:19:26.686Z,7.40
2019-03-22T05:22:32.067Z,7.40
2019-03-22T05:25:37.281Z,7.50
2019-03-22T05:28:40.734Z,7.50
2019-03-22T05:31:59.205Z,7.50
2019-03-22T05:35:02.718Z,7.60
2019-03-22T05:38:06.236Z,7.60
2019-03-22T05:41:09.778Z,7.70
2019-03-22T05:44:13.213Z,7.80
2019-03-22T05:47:16.679Z,8.00
2019-03-22T05:50:20.146Z,8.10
2019-03-22T05:53:23.605Z,8.20
2019-03-22T05:56:27.133Z,8.50
2019-03-22T05:59:41.563Z,9.20
2019-03-22T06:02:35.869Z,10.20
2019-03-22T06:05:39.345Z,11.20
2019-03-22T06:08:42.837Z,12.00
2019-03-22T06:11:46.413Z,12.70
2019-03-22T06:14:49.969Z,13.20
2019-03-22T06:17:53.457Z,14.00
2019-03-22T06:20:56.928Z,14.50
2019-03-22T06:24:00.399Z,14.90
2019-03-22T06:27:03.910Z,15.10
2019-03-22T06:30:09.238Z,15.30
2019-03-22T06:33:12.803Z,15.50
2019-03-22T06:36:16.297Z,15.90
2019-03-22T06:39:19.744Z,16.40
2019-03-22T06:42:23.209Z,16.40
2019-03-22T06:45:26.678Z,16.50
2019-03-22T06:48:30.142Z,16.40
2019-03-22T06:51:33.612Z,16.80
2019-03-22T06:54:37.074Z,17.30
2019-03-22T06:57:40.533Z,17.50
2019-03-22T07:00:44.069Z,17.70
2019-03-22T07:03:47.535Z,18.10
2019-03-22T07:06:51.058Z,18.40
2019-03-22T07:09:54.541Z,18.70
2019-03-22T07:12:57.974Z,19.10
2019-03-22T07:16:01.464Z,19.10
2019-03-22T07:19:05.001Z,18.70
2019-03-22T07:22:08.476Z,18.30
2019-03-22T07:25:12.007Z,17.90
2019-03-22T07:28:15.454Z,17.30
2019-03-22T07:31:18.941Z,16.90
2019-03-22T07:34:22.387Z,16.60
2019-03-22T07:37:25.856Z,16.40
2019-03-22T07:40:29.337Z,16.70
2019-03-22T07:43:32.799Z,16.90
2019-03-22T07:46:36.333Z,17.00
2019-03-22T07:49:39.772Z,17.10
2019-03-22T07:52:43.242Z,16.90
2019-03-22T07:55:46.681Z,16.60
2019-03-22T07:58:50.154Z,16.90
2019-03-22T08:01:53.614Z,17.10
2019-03-22T08:04:57.081Z,17.70
2019-03-22T08:08:00.537Z,18.20
2019-03-22T08:11:03.991Z,18.70
2019-03-22T08:14:07.538Z,19.40
2019-03-22T08:17:11.077Z,20.10
2019-03-22T08:20:14.542Z,21.00
2019-03-22T08:23:22.933Z,21.50
2019-03-22T08:29:29.539Z,21.60
2019-03-22T08:32:33.078Z,21.70
2019-03-22T08:35:36.604Z,21.70
2019-03-22T08:38:40.156Z,21.60
2019-03-22T08:41:43.605Z,21.70
2019-03-22T08:44:47.077Z,21.40
2019-03-22T08:47:50.553Z,21.30
2019-03-22T08:50:54.057Z,20.90
2019-03-22T08:53:57.523Z,20.60
2019-03-22T08:57:01.050Z,20.60
2019-03-22T09:00:07.629Z,20.70
2019-03-22T09:03:11.090Z,20.50
2019-03-22T09:06:14.630Z,20.10
2019-03-22T09:09:18.150Z,20.10
2019-03-22T09:12:21.626Z,20.30
2019-03-22T09:15:25.103Z,20.20
2019-03-22T09:18:28.633Z,20.10
2019-03-22T09:21:32.147Z,20.00
2019-03-22T09:24:39.440Z,19.60
2019-03-22T09:27:40.769Z,19.40
2019-03-22T09:30:44.277Z,19.20
2019-03-22T09:33:47.873Z,19.10
2019-03-22T09:36:51.346Z,19.10
2019-03-22T09:39:54.794Z,19.20
2019-03-22T09:42:58.299Z,19.00
2019-03-22T09:46:01.925Z,18.70
2019-03-22T09:49:05.466Z,18.50
2019-03-22T09:52:09.017Z,18.50
2019-03-22T09:55:14.252Z,18.60
2019-03-22T09:58:18.214Z,18.70
2019-03-22T10:01:23.861Z,18.90
2019-03-22T10:04:26.909Z,19.00
2019-03-22T10:07:30.377Z,19.00
2019-03-22T10:10:33.878Z,18.90
2019-03-22T10:13:37.387Z,19.00
2019-03-22T10:16:40.883Z,18.80
2019-03-22T10:19:44.388Z,18.80
2019-03-22T10:22:47.965Z,18.80
2019-03-22T10:25:51.563Z,18.90
2019-03-22T10:28:55.031Z,18.90
2019-03-22T10:31:58.502Z,18.90
2019-03-22T10:35:02.029Z,19.00
2019-03-22T10:38:15.350Z,19.00
2019-03-22T10:41:10.690Z,19.10
2019-03-22T10:44:14.230Z,19.00
2019-03-22T10:47:18.401Z,18.90
2019-03-22T10:50:21.964Z,18.90
2019-03-22T10:53:25.426Z,18.90
2019-03-22T10:56:28.923Z,18.90
2019-03-22T10:59:32.382Z,18.90
2019-03-22T11:02:35.857Z,18.90
2019-03-22T11:05:39.314Z,18.80
2019-03-22T11:08:42.797Z,18.60
2019-03-22T11:11:46.274Z,18.50
2019-03-22T11:14:49.826Z,18.40
2019-03-22T11:17:53.297Z,18.30
2019-03-22T11:21:04.859Z,18.20
2019-03-22T11:24:02.066Z,18.10
2019-03-22T11:27:05.514Z,18.10
2019-03-22T11:30:18.090Z,18.00
2019-03-22T11:33:21.561Z,18.00
2019-03-22T11:36:25.070Z,18.10
2019-03-22T11:39:28.516Z,18.00
2019-03-22T11:42:31.982Z,17.90
2019-03-22T11:45:35.493Z,18.00
2019-03-22T11:48:38.932Z,17.90
2019-03-22T11:51:42.475Z,17.70
2019-03-22T11:54:45.954Z,17.70
2019-03-22T11:57:49.412Z,17.60
2019-03-22T12:00:52.900Z,17.70
2019-03-22T12:03:56.416Z,17.70
2019-03-22T12:06:59.871Z,17.70
2019-03-22T12:10:05.245Z,17.60
2019-03-22T12:13:08.697Z,17.60
2019-03-22T12:16:12.253Z,17.50
2019-03-22T12:19:15.773Z,17.40
2019-03-22T12:22:19.246Z,17.50
2019-03-22T12:25:24.337Z,17.50
2019-03-22T12:28:27.801Z,17.50
2019-03-22T12:31:31.254Z,17.50
2019-03-22T12:34:34.797Z,17.50
2019-03-22T12:37:38.305Z,17.50
2019-03-22T12:40:41.778Z,17.40
2019-03-22T12:43:46.130Z,17.40
2019-03-22T12:46:49.630Z,17.40
2019-03-22T12:49:53.065Z,17.50
2019-03-22T12:52:56.537Z,17.60
2019-03-22T12:55:59.981Z,17.50
2019-03-22T12:59:03.489Z,17.50
2019-03-22T13:02:07.012Z,17.50
2019-03-22T13:05:11.016Z,17.60
2019-03-22T13:08:14.453Z,17.60
2019-03-22T13:11:17.917Z,17.60
2019-03-22T13:14:21.362Z,17.50
2019-03-22T13:17:24.911Z,17.50
2019-03-22T13:20:28.342Z,17.40
2019-03-22T13:23:31.810Z,17.40
2019-03-22T13:26:35.296Z,17.40
2019-03-22T13:29:38.734Z,17.30
2019-03-22T13:32:51.846Z,17.30
2019-03-22T13:35:47.393Z,17.40
2019-03-22T13:38:50.842Z,17.40
2019-03-22T13:41:54.319Z,17.40
2019-03-22T13:44:57.850Z,17.40
2019-03-22T13:48:01.337Z,17.40
2019-03-22T13:51:04.846Z,17.40
2019-03-22T13:54:08.329Z,17.40
2019-03-22T13:57:12.686Z,17.40
2019-03-22T14:00:20.090Z,17.40
2019-03-22T14:03:23.584Z,17.30
2019-03-22T14:06:27.114Z,17.30
2019-03-22T14:09:30.650Z,17.30
2019-03-22T14:12:37.218Z,17.40
2019-03-22T14:15:39.358Z,17.40
2019-03-22T14:18:42.818Z,17.40
2019-03-22T14:21:46.256Z,17.40
2019-03-22T14:24:49.726Z,17.40
2019-03-22T14:27:53.511Z,17.40
2019-03-22T14:30:56.969Z,17.40
2019-03-22T14:34:00.421Z,17.40
2019-03-22T14:37:03.960Z,17.40
2019-03-22T14:40:07.772Z,17.30
2019-03-22T14:43:11.223Z,17.40
2019-03-22T14:46:14.712Z,17.30
2019-03-22T14:49:18.199Z,17.40
2019-03-22T14:52:21.667Z,17.40
2019-03-22T14:55:25.135Z,17.40
2019-03-22T14:58:28.590Z,17.30
2019-03-22T15:01:32.053Z,17.30
2019-03-22T15:04:35.581Z,17.30
2019-03-22T15:07:39.045Z,17.30
2019-03-22T15:10:42.525Z,17.30
2019-03-22T15:13:47.621Z,17.30
2019-03-22T15:17:09.189Z,17.30
2019-03-22T15:20:23.655Z,17.30
2019-03-22T15:23:28.749Z,17.30
2019-03-22T15:26:39.909Z,17.20
2019-03-22T15:29:54.373Z,17.20
2019-03-22T15:33:02.282Z,17.20
2019-03-22T15:39:31.592Z,17.20
2019-03-22T15:42:35.192Z,17.10
2019-03-22T15:45:38.653Z,17.10
2019-03-22T15:48:42.109Z,17.00
2019-03-22T15:51:45.597Z,17.00
2019-03-22T15:54:49.092Z,17.00
2019-03-22T15:57:52.569Z,17.00
2019-03-22T16:00:56.041Z,17.00
2019-03-22T16:03:59.585Z,16.90
2019-03-22T16:07:03.127Z,16.90
2019-03-22T16:10:08.809Z,16.90
2019-03-22T16:13:12.274Z,16.80
2019-03-22T16:16:15.717Z,16.80
2019-03-22T16:19:19.179Z,16.70
2019-03-22T16:22:22.669Z,16.60
2019-03-22T16:25:26.125Z,16.60
2019-03-22T16:28:29.582Z,16.60
2019-03-22T16:31:33.062Z,16.50
2019-03-22T16:34:36.528Z,16.50
2019-03-22T16:37:39.985Z,16.40
2019-03-22T16:40:43.434Z,16.40
2019-03-22T16:43:46.934Z,16.40
2019-03-22T16:46:50.381Z,16.30
2019-03-22T16:49:53.846Z,16.30
2019-03-22T16:52:57.331Z,16.20
2019-03-22T16:56:00.806Z,16.20
2019-03-22T16:59:04.327Z,16.10
2019-03-22T17:02:07.793Z,16.10
2019-03-22T17:05:11.308Z,16.00
2019-03-22T17:08:24.737Z,16.00
2019-03-22T17:11:28.174Z,15.90
2019-03-22T17:14:31.641Z,15.80
2019-03-22T17:17:35.933Z,15.80
2019-03-22T17:20:39.409Z,15.70
2019-03-22T17:23:42.861Z,15.60
2019-03-22T17:26:46.335Z,15.50
2019-03-22T17:29:49.798Z,15.50
2019-03-22T17:32:53.269Z,15.40
2019-03-22T17:35:56.742Z,15.30
2019-03-22T17:39:00.225Z,15.20
2019-03-22T17:42:03.699Z,15.10
2019-03-22T17:45:09.454Z,15.00
2019-03-22T17:48:12.953Z,15.00
2019-03-22T17:51:16.418Z,14.90
2019-03-22T17:54:19.902Z,14.80
2019-03-22T17:57:23.438Z,14.70
2019-03-22T18:00:27.970Z,14.60
2019-03-22T18:03:31.418Z,14.50
2019-03-22T18:06:34.911Z,14.50
2019-03-22T18:09:38.394Z,14.40
2019-03-22T18:12:41.879Z,14.40
2019-03-22T18:15:45.326Z,14.40
2019-03-22T18:18:48.905Z,14.40
2019-03-22T18:21:54.518Z,14.40
2019-03-22T18:24:57.541Z,14.30
2019-03-22T18:28:01.007Z,14.30
2019-03-22T18:31:04.511Z,14.20
2019-03-22T18:34:07.973Z,14.20
2019-03-22T18:37:11.453Z,14.10
2019-03-22T18:40:15.497Z,14.10
2019-03-22T18:43:18.998Z,14.00
2019-03-22T18:46:22.498Z,13.90
2019-03-22T18:49:25.988Z,13.90
2019-03-22T18:52:29.537Z,13.90
2019-03-22T18:55:33.009Z,13.80
2019-03-22T18:58:36.479Z,13.80
2019-03-22T19:01:39.926Z,13.70
2019-03-22T19:04:44.350Z,13.80
2019-03-22T19:07:48.164Z,13.80
2019-03-22T19:10:51.614Z,13.80
2019-03-22T19:13:55.074Z,13.80
2019-03-22T19:16:58.526Z,13.90
2019-03-22T19:20:01.989Z,13.80
2019-03-22T19:23:05.458Z,13.80
2019-03-22T19:26:08.917Z,13.90
2019-03-22T19:29:12.386Z,13.90
2019-03-22T19:32:15.826Z,13.90
2019-03-22T19:35:19.298Z,13.90
2019-03-22T19:38:22.742Z,14.00
2019-03-22T19:41:26.277Z,14.00
2019-03-22T19:44:29.726Z,13.90
2019-03-22T19:47:33.251Z,14.00
2019-03-22T19:50:36.747Z,14.00
2019-03-22T19:53:40.198Z,14.00
2019-03-22T19:56:43.697Z,14.00
2019-03-22T19:59:47.129Z,14.00
2019-03-22T20:02:50.602Z,14.00
2019-03-22T20:05:54.089Z,13.90
2019-03-22T20:08:57.629Z,13.90
2019-03-22T20:12:01.089Z,13.90
2019-03-22T20:15:06.498Z,13.80
2019-03-22T20:18:10.356Z,13.70
2019-03-22T20:21:13.825Z,13.70
2019-03-22T20:24:17.285Z,13.70
2019-03-22T20:27:20.742Z,13.60
2019-03-22T20:30:24.210Z,13.60
2019-03-22T20:33:27.662Z,13.60
2019-03-22T20:36:31.127Z,13.50
2019-03-22T20:39:34.609Z,13.50
2019-03-22T20:42:38.045Z,13.50
2019-03-22T20:45:41.522Z,13.50
2019-03-22T20:48:44.986Z,13.50
2019-03-22T20:51:48.456Z,13.40
2019-03-22T20:54:51.942Z,13.40
2019-03-22T20:57:55.407Z,13.30
2019-03-22T21:00:58.873Z,13.20
2019-03-22T21:04:02.351Z,13.10
2019-03-22T21:07:05.991Z,13.10
2019-03-22T21:10:10.029Z,13.10
2019-03-22T21:13:13.490Z,13.00
2019-03-22T21:16:16.988Z,12.90
2019-03-22T21:19:20.493Z,12.80
2019-03-22T21:22:23.970Z,12.80
2019-03-22T21:25:27.461Z,12.70
2019-03-22T21:28:30.934Z,12.70
2019-03-22T21:31:34.399Z,12.60
2019-03-22T21:34:37.933Z,12.60
2019-03-22T21:37:41.414Z,12.60
2019-03-22T21:40:44.893Z,12.60
2019-03-22T21:43:48.365Z,12.60
2019-03-22T21:46:51.892Z,12.50
2019-03-22T21:49:55.340Z,12.50
2019-03-22T21:52:58.818Z,12.50
2019-03-22T21:56:02.295Z,12.50
2019-03-22T21:59:05.766Z,12.60
2019-03-22T22:02:09.214Z,12.60
2019-03-22T22:05:12.685Z,12.50
2019-03-22T22:08:16.153Z,12.50
2019-03-22T22:11:19.664Z,12.50
2019-03-22T22:14:23.193Z,12.40
2019-03-22T22:17:26.674Z,12.40
2019-03-22T22:20:30.205Z,12.40
2019-03-22T22:23:33.671Z,12.50
2019-03-22T22:26:37.115Z,12.50
2019-03-22T22:29:40.606Z,12.40
2019-03-22T22:32:44.045Z,12.40
2019-03-22T22:35:57.945Z,12.40
2019-03-22T22:38:52.702Z,12.40
2019-03-22T22:41:56.157Z,12.40
2019-03-22T22:44:59.629Z,12.40
2019-03-22T22:48:03.074Z,12.40
2019-03-22T22:51:06.542Z,12.50
2019-03-22T22:54:10.025Z,12.40
2019-03-22T22:57:13.461Z,12.30
2019-03-22T23:00:17.986Z,12.20
2019-03-22T23:03:21.459Z,12.10
2019-03-22T23:06:24.933Z,12.00
2019-03-22T23:09:28.465Z,12.00
2019-03-22T23:12:31.926Z,12.10
2019-03-22T23:15:35.393Z,12.10
2019-03-22T23:18:38.919Z,12.10
2019-03-22T23:21:42.382Z,12.10
2019-03-22T23:24:45.825Z,12.00
2019-03-22T23:27:49.334Z,11.90
2019-03-22T23:30:52.793Z,11.90
2019-03-22T23:33:56.334Z,11.90
2019-03-22T23:36:59.784Z,11.90
2019-03-22T23:40:03.913Z,11.90
2019-03-22T23:43:07.378Z,11.80
2019-03-22T23:46:10.854Z,11.80
2019-03-22T23:49:14.295Z,11.80
2019-03-22T23:52:17.785Z,11.80
2019-03-22T23:55:21.254Z,11.80
2019-03-22T23:58:24.718Z,11.70
